Time,TemperatureF,DewpointF,PressureIn,WindDirection,WindDirectionDegrees,WindSpeedMPH,WindSpeedGustMPH,Humidity,HourlyPrecipIn,Conditions,Clouds,dailyrainin,SoftwareType,DateUTC
2013-06-13 09:11:00,79.0,70.0,29.67,NE,39,5.0,0.0,75,-99.99,,,-99.99,,2013-06-13 13:11:00,
2013-06-13 09:22:00,79.0,70.0,29.67,SE,134,1.0,0.0,75,-99.99,,,-99.99,,2013-06-13 13:22:00,
2013-06-13 09:33:00,79.0,70.0,29.67,SE,134,1.0,0.0,75,-99.99,,,-99.99,,2013-06-13 13:33:00,
2013-06-13 09:43:00,79.0,71.0,29.67,ENE,73,1.0,0.0,76,-99.99,,,-99.99,,2013-06-13 13:43:00,
2013-06-13 09:53:00,79.0,71.0,29.67,ENE,73,1.0,0.0,76,-99.99,,,-99.99,,2013-06-13 13:53:00,
2013-06-13 10:02:00,79.0,71.0,29.67,South,188,2.0,0.0,76,-99.99,,,-99.99,,2013-06-13 14:02:00,
2013-06-13 10:11:00,79.0,71.0,29.67,South,188,2.0,0.0,76,-99.99,,,-99.99,,2013-06-13 14:11:00,
2013-06-13 10:22:00,79.0,71.0,29.67,South,188,2.0,0.0,76,-99.99,,,-99.99,,2013-06-13 14:22:00,
2013-06-13 10:33:00,81.0,72.0,29.65,ENE,57,2.0,0.0,74,-99.99,,,-99.99,,2013-06-13 14:33:00,
2013-06-13 10:43:00,82.0,72.0,29.64,NNE,23,2.0,0.0,72,-99.99,,,-99.99,,2013-06-13 14:43:00,
2013-06-13 10:53:00,82.0,72.0,29.64,NNE,23,2.0,0.0,72,-99.99,,,-99.99,,2013-06-13 14:53:00,
2013-06-13 11:02:00,82.0,70.0,29.64,NNE,15,1.0,0.0,68,-99.99,,,-99.99,,2013-06-13 15:02:00,
2013-06-13 11:12:00,82.0,70.0,29.64,NNE,15,1.0,0.0,68,-99.99,,,-99.99,,2013-06-13 15:12:00,
2013-06-13 11:22:00,82.0,70.0,29.64,NNE,15,1.0,0.0,68,-99.99,,,-99.99,,2013-06-13 15:22:00,
2013-06-13 11:33:00,82.0,70.0,29.64,NNE,15,1.0,0.0,68,-99.99,,,-99.99,,2013-06-13 15:33:00,
2013-06-13 11:53:00,84.0,70.0,29.62,ENE,76,3.0,0.0,63,-99.99,,,-99.99,,2013-06-13 15:53:00,
2013-06-13 12:02:00,84.0,70.0,29.62,ENE,76,3.0,0.0,63,-99.99,,,-99.99,,2013-06-13 16:02:00,
2013-06-13 12:12:00,84.0,70.0,29.62,ENE,76,3.0,0.0,63,-99.99,,,-99.99,,2013-06-13 16:12:00,
2013-06-13 12:22:00,84.0,70.0,29.62,ENE,76,3.0,0.0,63,-99.99,,,-99.99,,2013-06-13 16:22:00,
2013-06-13 16:22:00,66.0,65.0,29.58,East,84,0.0,0.0,95,-99.99,,,-99.99,,2013-06-13 20:22:00,
2013-06-13 16:30:00,69.0,67.0,29.54,East,92,2.0,0.0,93,-99.99,,,-99.99,,2013-06-13 20:30:00,
2013-06-13 16:33:00,66.0,65.0,29.58,East,84,0.0,0.0,95,-99.99,,,-99.99,,2013-06-13 20:33:00,
2013-06-13 16:44:00,68.0,67.0,29.55,ESE,115,1.0,0.0,95,-99.99,,,-99.99,,2013-06-13 20:44:00,
2013-06-13 16:53:00,69.0,67.0,29.54,East,92,2.0,0.0,93,-99.99,,,-99.99,,2013-06-13 20:53:00,
2013-06-13 17:02:00,69.0,67.0,29.54,East,92,2.0,0.0,93,-99.99,,,-99.99,,2013-06-13 21:02:00,
2013-06-13 17:11:00,69.0,67.0,29.54,East,92,2.0,0.0,93,-99.99,,,-99.99,,2013-06-13 21:11:00,
2013-06-13 17:22:00,69.0,67.0,29.54,East,92,2.0,0.0,93,-99.99,,,-99.99,,2013-06-13 21:22:00,